Championnat de Ligue LD Rilly (51) - D

Date : 08/05/2011
Distance : 5,500 km

Place Nom Licence Catégorie Club Temps min/km CN à J-60 Points Différence Nouveau CN
1 PATURET Bertrand 2878 H60 6009PI 0:55:40 10'07 4559 4305 -254 4381
2 GUENIN Nathalie 16950 D40 5116CA 0:56:33 10'16 3310 4238 +928 3915
3 TAILLANDIER Guy 1583 H65 0801CA 0:57:09 10'23 5604 4193 -1411 5640
4 MARTIN Pascale 23568 D50 7512IF 0:58:34 10'38 3200 4092 +892 4151
5 DUMONT-GOSSET Bernadette 1239 D50 5101CA 0:59:56 10'53 4251 3998 -253 0
6 SOL Michel 933 H60 7707IF 1:00:38 11'01 4626 3952 -674 4341
7 PETIT Guyonne 4372 D55 7808IF 1:01:25 11'10 4062 3902 -160 4085
8 SZYMANOWSKI Fabrice 7200 H45 6208NO 1:01:36 11'12 4956 3890 -1066 5010
9 GOURLAIN Mathilde 18299 D16 6205NO 1:05:19 11'52 3636 3669 +33 3703
10 LEFEVRE Thomas 24868 H21 5116CA 1:08:14 12'24 3512 2931
11 DUQUENNE Audrey 23885 D16 5907NO 1:09:39 12'39 2019 3441 +1422 3176
12 DELAPORTE Léa 20067 D16 5116CA 1:11:50 13'03 1949 3336 +1387 2823
13 CZERNIAK Jérome 13271 H35 6205NO 1:20:04 14'33 3673 2993 -680 3996
14 BOULANGER Isabelle 10639 D50 5907NO 1:20:23 14'36 3335 2981 -354 3425
15 ROSE Jean-Bernard 6740 H60 0801CA 1:21:00 14'43 2832 2959 +127 3088
16 AUBERT Fabrice 18140 H55 4504CE 1:31:51 16'42 2836 2609 -227 2614
17 FENEUIL Coralie 15586 D16 5101CA 1:35:12 17'18 1582 2517 +935 2237
18 TESTOUD Philippe 935 H70 7707IF 1:35:48 17'25 3106 2501 -605 3446
19 WISSEMBERG Agnès 19346 D40 5116CA 1:38:08 17'50 2442 0
20 PARENT Mathilde 22250 D16 6208NO 1:38:17 17'52 2374 2438 +64 2520
21 TEGNY Laurine 23659 D16 6205NO 1:39:49 18'08 1755 2401 +646 1968
22 POULAIN Odile 1948 D50 5908NO 1:47:51 19'36 2978 2222 -756 3193
23 RICHARD Nicole 14245 D60 0207PI 1:47:54 19'37 3274 2221 -1053 3273
24 TORZ-DRUON Magali 10081 D55 5906NO 1:50:56 20'10 2137 2160 +23 2270
25 LECOYER Annick 2885 D60 0207PI 1:55:19 20'58 2936 2078 -858 2794
26 BULLIER Alisson 23427 D16 0207PI 2:02:46 22'19 2318 1952 -366 2613
27 DETOC Brigitte 18196 D50 5116CA 2:05:28 22'48 0 1910 1649
28 KOHLER Dominique 22017 D45 5116CA 2:18:41 25'12 1728 0
29 LUDEWIG-JAMES Carol 15894 D70 5907NO 2:40:04 29'06 2160 1497 -663 2351
BIGOT Martine 20759 D60 5116CA pm None 1284 0 1778
VANOVERBERGHE Philippe 22236 H45 6208NO pm None 2203 0 2370